Pagrindinis puslapis
METAR-TAF:

METAR-TAF

Oro uostai :

Šarlio de Golio oro uostas

Paryžius-Charles de Gaulle, Prancūzija

platuma: 49-01N, ilguma: 002-32E, Aukštis: 118 m

Dabartinis oras

Ataskaita buvo paskelbta 37 minutes, ne 16:30 UTC
Vėjas 15 kt iš Rytų/Šiaurės Rytų
Temperatūra 23°C
Drėgmė 19%
Slėgis 1020 hPa
Matomumas 10 km arba daugiau
nėra debesų žemiau 1500 m ir nėra kamuolinių lietaus debesų

METAR: LFPG 201630Z 07015KT CAVOK 23/M02 Q1020 NOSIG

Laikas: 19:07 (17:07 UTC)

Prognozė

Ataskaita buvo paskelbta 6 valandos ir 7 minutes, ne 11:00 UTC
Prognozė galioja nuo 20 metu 12 UTC su 21 metu 18 UTC
Vėjas 15 kt iš Rytų/Šiaurės Rytų
Matomumas 10 km arba daugiau
nėra debesų žemiau 1500 m ir nėra kamuolinių lietaus debesų

TAF: LFPG 201100Z 2012/2118 07015KT CAVOK TX27/2115Z TN12/2106Z

Orai ataskaitas ir orų prognozės (METAR, TAF).

turimą stotys yra geltonos ir raudonos taškus žemėlapyje.

Perkelti pele per norėdami pamatyti stoties vardą.

Tada spustelėkite, norėdami matyti oro stebėjimo ir prognozės.

Norėdami pakeisti žemėlapį: spustelėkite ant žalios mygtukų su juodo kryžiaus žemyn,; žalią mygtuką su brūkšneliu, jei norite nutolinti; arba žalių rodyklių gretimoms žemėlapius.


METAR-TAF: